Map

Track Data

SID SEASON NUMBER BASIN SUBBASIN NAME ISO_TIME NATURE LAT LON WMO_WIND WMO_PRES WMO_AGENCY TRACK_TYPE DIST2LAND LANDFALL IFLAG USA_AGENCY USA_ATCF_ID USA_LAT USA_LON USA_RECORD USA_STATUS USA_WIND USA_PRES USA_SSHS USA_R34_NE USA_R34_SE USA_R34_SW USA_R34_NW USA_R50_NE USA_R50_SE USA_R50_SW USA_R50_NW USA_R64_NE USA_R64_SE USA_R64_SW USA_R64_NW USA_POCI USA_ROCI USA_RMW USA_EYE TOKYO_LAT TOKYO_LON TOKYO_GRADE TOKYO_WIND TOKYO_PRES TOKYO_R50_DIR TOKYO_R50_LONG TOKYO_R50_SHORT TOKYO_R30_DIR TOKYO_R30_LONG TOKYO_R30_SHORT TOKYO_LAND CMA_LAT CMA_LON CMA_CAT CMA_WIND CMA_PRES HKO_LAT HKO_LON HKO_CAT HKO_WIND HKO_PRES NEWDELHI_LAT NEWDELHI_LON NEWDELHI_GRADE NEWDELHI_WIND NEWDELHI_PRES NEWDELHI_CI NEWDELHI_DP NEWDELHI_POCI REUNION_LAT REUNION_LON REUNION_TYPE REUNION_WIND REUNION_PRES REUNION_TNUM REUNION_CI REUNION_RMW REUNION_R34_NE REUNION_R34_SE REUNION_R34_SW REUNION_R34_NW REUNION_R50_NE REUNION_R50_SE REUNION_R50_SW REUNION_R50_NW REUNION_R64_NE REUNION_R64_SE REUNION_R64_SW REUNION_R64_NW BOM_LAT BOM_LON BOM_TYPE BOM_WIND BOM_PRES BOM_TNUM BOM_CI BOM_RMW BOM_R34_NE BOM_R34_SE BOM_R34_SW BOM_R34_NW BOM_R50_NE BOM_R50_SE BOM_R50_SW BOM_R50_NW BOM_R64_NE BOM_R64_SE BOM_R64_SW BOM_R64_NW BOM_ROCI BOM_POCI BOM_EYE BOM_POS_METHOD BOM_PRES_METHOD NADI_LAT NADI_LON NADI_CAT NADI_WIND NADI_PRES WELLINGTON_LAT WELLINGTON_LON WELLINGTON_WIND WELLINGTON_PRES DS824_LAT DS824_LON DS824_STAGE DS824_WIND DS824_PRES TD9636_LAT TD9636_LON TD9636_STAGE TD9636_WIND TD9636_PRES TD9635_LAT TD9635_LON TD9635_WIND TD9635_PRES TD9635_ROCI NEUMANN_LAT NEUMANN_LON NEUMANN_CLASS NEUMANN_WIND NEUMANN_PRES MLC_LAT MLC_LON MLC_CLASS MLC_WIND MLC_PRES USA_GUST BOM_GUST BOM_GUST_PER REUNION_GUST REUNION_GUST_PER USA_SEAHGT USA_SEARAD_NE USA_SEARAD_SE USA_SEARAD_SW USA_SEARAD_NW STORM_SPEED STORM_DIR
1923351N07073 1923 76 NI AS NOT_NAMED 1923-12-17 00:00:00 TS 6.80000 73.2000 main 433 433 _________O____ -1 6.80000 73.2000 TC 30 6 277
1923351N07073 1923 76 NI AS NOT_NAMED 1923-12-17 03:00:00 TS 6.83506 72.9000 main 461 461 _________PO___ -1 6.85258 72.7500 TC 33 6.80000 73.2000 1 7 276
1923351N07073 1923 76 NI AS NOT_NAMED 1923-12-17 06:00:00 TS 6.87573 72.4812 main 494 494 _________OP___ -1 6.90000 72.3000 TC 37 6.83932 72.7531 1 9 276
1923351N07073 1923 76 NI AS NOT_NAMED 1923-12-17 09:00:00 TS 6.91687 72.0450 main 544 544 _________PP___ -1 6.94246 71.8500 TC 41 6.88275 72.3049 1 9 276
1923351N07073 1923 76 NI AS NOT_NAMED 1923-12-17 12:00:00 TS 6.96740 71.6272 main 580 580 _________OP___ -1 7.00000 71.4000 TC 45 6.93480 71.8543 1 9 278
1923351N07073 1923 76 NI AS NOT_NAMED 1923-12-17 15:00:00 TS 7.04624 71.1712 main 621 621 _________PO___ -1 7.09248 70.9425 TC 49 7.00000 71.4000 3 9 281
1923351N07073 1923 76 NI AS NOT_NAMED 1923-12-17 18:00:00 TS 7.14078 70.7217 main 668 664 _________OP___ -1 7.20000 70.5000 TC 54 7.08155 70.9435 3 9 282
1923351N07073 1923 76 NI AS NOT_NAMED 1923-12-17 21:00:00 TS 7.23875 70.2875 main 705 705 _________PP___ -1 7.29998 70.0775 TC 59 7.17752 70.4976 3 9 284
1923351N07073 1923 76 NI AS NOT_NAMED 1923-12-18 00:00:00 TS 7.34236 69.8889 main 742 742 _________OP___ -1 7.40000 69.7000 TC 64 7.28471 70.0778 3 8 286
1923351N07073 1923 76 NI AS NOT_NAMED 1923-12-18 03:00:00 TS 7.44623 69.5387 main 781 778 _________PO___ -1 7.49246 69.3775 TC 64 7.40000 69.7000 4 7 289
1923351N07073 1923 76 NI AS NOT_NAMED 1923-12-18 06:00:00 TS 7.55881 69.2369 main 807 807 _________OP___ -1 7.60000 69.1000 TC 64 7.51763 69.3737 4 6 294
1923351N07073 1923 76 NI AS NOT_NAMED 1923-12-18 09:00:00 TS 7.69613 68.9662 main 825 825 _________PP___ -1 7.74997 68.8425 TC 64 7.64228 69.0900 4 6 298
1923351N07073 1923 76 NI AS NOT_NAMED 1923-12-18 12:00:00 TS 7.83540 68.7181 main 853 847 _________OP___ -1 7.90000 68.6000 TC 64 7.77080 68.8362 4 6 297
1923351N07073 1923 76 NI AS NOT_NAMED 1923-12-18 15:00:00 TS 7.95000 68.4712 main 860 860 _________PO___ -1 8.00000 68.3425 TC 64 7.90000 68.6000 4 5 295
1923351N07073 1923 76 NI AS NOT_NAMED 1923-12-18 18:00:00 TS 8.05632 68.2404 main 882 882 _________OP___ -1 8.10000 68.1000 TC 64 8.01265 68.3808 4 5 299
1923351N07073 1923 76 NI AS NOT_NAMED 1923-12-18 21:00:00 TS 8.18110 68.0436 main 896 896 _________PP___ -1 8.23494 67.9149 TC 64 8.12725 68.1722 4 5 303
1923351N07073 1923 76 NI AS NOT_NAMED 1923-12-19 00:00:00 TS 8.32662 67.8263 main 910 905 _________OP___ -1 8.40000 67.7000 TC 64 8.25324 67.9526 4 6 302
1923351N07073 1923 76 NI AS NOT_NAMED 1923-12-19 03:00:00 TS 8.49626 67.5363 main 929 929 _________PO___ -1 8.59252 67.3725 TC 64 8.40000 67.7000 4 7 300
1923351N07073 1923 76 NI AS NOT_NAMED 1923-12-19 06:00:00 TS 8.69535 67.1910 main 948 948 _________OP___ -1 8.80000 67.0000 TC 64 8.59069 67.3820 4 8 300
1923351N07073 1923 76 NI AS NOT_NAMED 1923-12-19 09:00:00 TS 8.90379 66.8363 main 977 977 _________PP___ -1 9.00749 66.6425 TC 64 8.80009 67.0302 4 8 300
1923351N07073 1923 76 NI AS NOT_NAMED 1923-12-19 12:00:00 TS 9.10472 66.4816 main 996 996 _________OP___ -1 9.20000 66.3000 TC 64 9.00943 66.6633 4 8 299
1923351N07073 1923 76 NI AS NOT_NAMED 1923-12-19 15:00:00 TS 9.28247 66.1500 main 1027 1027 _________PO___ -1 9.36493 66.0000 TC 64 9.20000 66.3000 4 7 297
1923351N07073 1923 76 NI AS NOT_NAMED 1923-12-19 18:00:00 TS 9.43138 65.8278 main 1053 1049 _________OP___ -1 9.50000 65.7000 TC 64 9.36276 65.9556 4 7 293
1923351N07073 1923 76 NI AS NOT_NAMED 1923-12-19 21:00:00 TS 9.55874 65.4812 main 1076 1076 _________PP___ -1 9.61503 65.3425 TC 64 9.50245 65.6200 4 7 289
1923351N07073 1923 76 NI AS NOT_NAMED 1923-12-20 00:00:00 TS 9.65795 65.1497 main 1113 1113 _________OP___ -1 9.70000 65.0000 TC 64 9.61590 65.2994 4 6 286
1923351N07073 1923 76 NI AS NOT_NAMED 1923-12-20 03:00:00 TS 9.73247 64.8675 main 1134 1134 _________PO___ -1 9.76494 64.7350 TC 64 9.70000 65.0000 4 5 283
1923351N07073 1923 76 NI AS NOT_NAMED 1923-12-20 06:00:00 TS 9.77680 64.6142 main 1146 1125 _________OP___ -1 9.80000 64.5000 TC 64 9.75360 64.7283 4 5 277
1923351N07073 1923 76 NI AS NOT_NAMED 1923-12-20 09:00:00 TS 9.78990 64.3636 main 1125 1093 _________PP___ -1 9.79998 64.2500 TC 64 9.77982 64.4773 4 5 272
1923351N07073 1923 76 NI AS NOT_NAMED 1923-12-20 12:00:00 TS 9.79556 64.1189 main 1093 1072 _________OP___ -1 9.80000 64.0000 TC 64 9.79113 64.2377 4 5 274
1923351N07073 1923 76 NI AS NOT_NAMED 1923-12-20 15:00:00 TS 9.82499 63.8750 main 1072 1038 _________PO___ -1 9.84998 63.7500 TC 64 9.80000 64.0000 4 5 278
1923351N07073 1923 76 NI AS NOT_NAMED 1923-12-20 18:00:00 TS 9.86450 63.6250 main 1038 1017 _________OP___ -1 9.90000 63.5000 TC 64 9.82901 63.7500 4 5 277
1923351N07073 1923 76 NI AS NOT_NAMED 1923-12-20 21:00:00 TS 9.88245 63.3750 main 1017 985 _________PP___ -1 9.90748 63.2500 TC 64 9.85743 63.5000 4 5 273
1923351N07073 1923 76 NI AS NOT_NAMED 1923-12-21 00:00:00 TS 9.89107 63.1250 main 985 965 _________OP___ -1 9.90000 63.0000 TC 64 9.88213 63.2500 4 5 272
1923351N07073 1923 76 NI AS NOT_NAMED 1923-12-21 03:00:00 TS 9.89999 62.8750 main 965 934 _________PO___ -1 9.89998 62.7500 TC 64 9.90000 63.0000 4 5 271
1923351N07073 1923 76 NI AS NOT_NAMED 1923-12-21 06:00:00 TS 9.90357 62.6250 main 934 913 _________OP___ -1 9.90000 62.5000 TC 64 9.90713 62.7500 4 5 270
1923351N07073 1923 76 NI AS NOT_NAMED 1923-12-21 09:00:00 TS 9.90369 62.3787 main 913 882 _________PP___ -1 9.89996 62.2575 TC 64 9.90743 62.5000 4 5 270
1923351N07073 1923 76 NI AS NOT_NAMED 1923-12-21 12:00:00 TS 9.90200 62.1250 main 882 862 _________OP___ -1 9.90000 62.0000 TC 64 9.90401 62.2500 4 5 270
1923351N07073 1923 76 NI AS NOT_NAMED 1923-12-21 15:00:00 TS 9.90001 61.8463 main 852 831 _________PO___ -1 9.90003 61.6925 TC 56 9.90000 62.0000 4 5 270
1923351N07073 1923 76 NI AS NOT_NAMED 1923-12-21 18:00:00 TS 9.89880 61.6000 main 831 811 _________OP___ -1 9.90000 61.4000 TC 49 9.89790 61.7500 4 5 270
1923351N07073 1923 76 NI AS NOT_NAMED 1923-12-21 21:00:00 TS 9.89858 61.3710 main 811 791 _________PP___ -1 9.89999 61.1775 TC 41 9.89765 61.5000 4 4 270
1923351N07073 1923 76 NI AS NOT_NAMED 1923-12-22 00:00:00 TS 9.89905 61.1667 main 791 771 _________OP___ -1 9.90000 61.0000 TC 34 9.89858 61.2500 4 4 270
1923351N07073 1923 76 NI AS NOT_NAMED 1923-12-22 03:00:00 NR 9.90000 61.0000 main 771 __________O___ -1 TC 9.90000 61.0000 2 3 270

About IBTrACS Database

This database is a web-friendly format of International Best Track Archive for Climate Stewardship (IBTrACS), a global best track data archive curated by NOAA dating back to 1842.

Updated: 2021-10-08